sensor_id;sensor_type;location;lat;lon;timestamp;P1;durP1;ratioP1;P2;durP2;ratioP2
71162;SDS011;58858;50.948;6.566;2023-02-13T00:09:25;13.73;;;9.43;;
71162;SDS011;58858;50.948;6.566;2023-02-13T00:19:26;14.10;;;8.57;;
71162;SDS011;58858;50.948;6.566;2023-02-13T00:29:27;16.15;;;9.65;;
71162;SDS011;58858;50.948;6.566;2023-02-13T00:39:28;14.05;;;9.45;;
71162;SDS011;58858;50.948;6.566;2023-02-13T00:49:29;17.50;;;11.60;;
71162;SDS011;58858;50.948;6.566;2023-02-13T00:59:30;21.92;;;13.38;;
71162;SDS011;58858;50.948;6.566;2023-02-13T01:09:34;20.80;;;12.43;;
71162;SDS011;58858;50.948;6.566;2023-02-13T01:19:35;20.42;;;13.00;;
71162;SDS011;58858;50.948;6.566;2023-02-13T01:29:36;21.45;;;13.13;;
71162;SDS011;58858;50.948;6.566;2023-02-13T01:39:37;23.23;;;13.85;;
71162;SDS011;58858;50.948;6.566;2023-02-13T01:49:38;22.55;;;14.00;;
71162;SDS011;58858;50.948;6.566;2023-02-13T01:59:51;21.15;;;13.80;;
71162;SDS011;58858;50.948;6.566;2023-02-13T02:09:56;18.13;;;11.27;;
71162;SDS011;58858;50.948;6.566;2023-02-13T02:41:09;19.30;;;11.43;;
71162;SDS011;58858;50.948;6.566;2023-02-13T02:51:47;19.75;;;13.27;;
71162;SDS011;58858;50.948;6.566;2023-02-13T03:02:01;18.50;;;12.38;;
71162;SDS011;58858;50.948;6.566;2023-02-13T03:12:25;20.02;;;13.25;;
71162;SDS011;58858;50.948;6.566;2023-02-13T03:44:12;18.92;;;12.23;;
71162;SDS011;58858;50.948;6.566;2023-02-13T03:54:22;19.88;;;11.90;;
71162;SDS011;58858;50.948;6.566;2023-02-13T04:04:51;17.83;;;11.50;;
71162;SDS011;58858;50.948;6.566;2023-02-13T04:15:18;21.08;;;12.63;;
71162;SDS011;58858;50.948;6.566;2023-02-13T04:25:20;20.40;;;12.85;;
71162;SDS011;58858;50.948;6.566;2023-02-13T04:35:22;21.65;;;13.10;;
71162;SDS011;58858;50.948;6.566;2023-02-13T04:45:23;20.92;;;12.45;;
71162;SDS011;58858;50.948;6.566;2023-02-13T04:55:24;22.17;;;14.10;;
71162;SDS011;58858;50.948;6.566;2023-02-13T05:05:26;20.80;;;13.45;;
71162;SDS011;58858;50.948;6.566;2023-02-13T05:15:27;21.25;;;13.25;;
71162;SDS011;58858;50.948;6.566;2023-02-13T05:25:28;22.52;;;14.20;;
71162;SDS011;58858;50.948;6.566;2023-02-13T05:35:30;24.05;;;14.70;;
71162;SDS011;58858;50.948;6.566;2023-02-13T05:45:31;25.58;;;15.27;;
71162;SDS011;58858;50.948;6.566;2023-02-13T05:55:32;25.65;;;16.08;;
71162;SDS011;58858;50.948;6.566;2023-02-13T06:05:33;24.48;;;15.52;;
71162;SDS011;58858;50.948;6.566;2023-02-13T06:15:34;24.38;;;14.73;;
71162;SDS011;58858;50.948;6.566;2023-02-13T06:25:35;27.55;;;15.20;;
71162;SDS011;58858;50.948;6.566;2023-02-13T06:35:37;27.27;;;15.57;;
71162;SDS011;58858;50.948;6.566;2023-02-13T06:45:38;25.23;;;16.67;;
71162;SDS011;58858;50.948;6.566;2023-02-13T06:55:39;23.55;;;15.30;;
71162;SDS011;58858;50.948;6.566;2023-02-13T07:05:41;24.33;;;14.82;;
71162;SDS011;58858;50.948;6.566;2023-02-13T07:15:42;23.75;;;14.07;;
71162;SDS011;58858;50.948;6.566;2023-02-13T07:25:43;21.50;;;13.73;;
71162;SDS011;58858;50.948;6.566;2023-02-13T07:35:45;19.98;;;13.18;;
71162;SDS011;58858;50.948;6.566;2023-02-13T07:45:49;21.30;;;14.73;;
71162;SDS011;58858;50.948;6.566;2023-02-13T07:55:54;24.35;;;13.82;;
71162;SDS011;58858;50.948;6.566;2023-02-13T08:05:55;23.13;;;14.70;;
71162;SDS011;58858;50.948;6.566;2023-02-13T08:15:56;20.35;;;13.77;;
71162;SDS011;58858;50.948;6.566;2023-02-13T08:25:58;21.83;;;13.13;;
71162;SDS011;58858;50.948;6.566;2023-02-13T08:36:04;16.98;;;12.18;;
71162;SDS011;58858;50.948;6.566;2023-02-13T08:46:08;17.52;;;11.13;;
71162;SDS011;58858;50.948;6.566;2023-02-13T08:56:09;17.48;;;11.02;;
71162;SDS011;58858;50.948;6.566;2023-02-13T09:06:11;13.18;;;9.30;;
71162;SDS011;58858;50.948;6.566;2023-02-13T09:16:12;14.85;;;10.35;;
71162;SDS011;58858;50.948;6.566;2023-02-13T09:26:14;14.15;;;9.80;;
71162;SDS011;58858;50.948;6.566;2023-02-13T09:36:16;12.30;;;9.55;;
71162;SDS011;58858;50.948;6.566;2023-02-13T09:46:20;15.48;;;9.55;;
71162;SDS011;58858;50.948;6.566;2023-02-13T10:06:53;12.50;;;8.68;;
71162;SDS011;58858;50.948;6.566;2023-02-13T10:18:02;14.82;;;8.98;;
71162;SDS011;58858;50.948;6.566;2023-02-13T10:27:43;12.73;;;9.23;;
71162;SDS011;58858;50.948;6.566;2023-02-13T10:37:48;13.53;;;9.07;;
71162;SDS011;58858;50.948;6.566;2023-02-13T10:58:18;12.38;;;8.50;;
71162;SDS011;58858;50.948;6.566;2023-02-13T11:08:22;12.20;;;8.10;;
71162;SDS011;58858;50.948;6.566;2023-02-13T11:18:29;12.40;;;7.22;;
71162;SDS011;58858;50.948;6.566;2023-02-13T11:29:17;12.15;;;7.82;;
71162;SDS011;58858;50.948;6.566;2023-02-13T11:39:05;12.48;;;8.20;;
71162;SDS011;58858;50.948;6.566;2023-02-13T11:49:16;12.27;;;7.95;;
71162;SDS011;58858;50.948;6.566;2023-02-13T11:59:24;12.43;;;7.68;;
71162;SDS011;58858;50.948;6.566;2023-02-13T12:09:26;11.82;;;7.97;;
71162;SDS011;58858;50.948;6.566;2023-02-13T12:19:41;11.32;;;7.57;;
71162;SDS011;58858;50.948;6.566;2023-02-13T12:30:04;12.85;;;6.82;;
71162;SDS011;58858;50.948;6.566;2023-02-13T12:40:22;12.13;;;7.63;;
71162;SDS011;58858;50.948;6.566;2023-02-13T13:31:27;8.95;;;5.38;;
71162;SDS011;58858;50.948;6.566;2023-02-13T13:41:50;8.25;;;5.05;;
71162;SDS011;58858;50.948;6.566;2023-02-13T14:12:47;7.15;;;4.75;;
71162;SDS011;58858;50.948;6.566;2023-02-13T14:22:48;9.10;;;5.90;;
71162;SDS011;58858;50.948;6.566;2023-02-13T14:32:50;8.68;;;4.63;;
71162;SDS011;58858;50.948;6.566;2023-02-13T14:53:26;8.77;;;4.30;;
71162;SDS011;58858;50.948;6.566;2023-02-13T15:13:40;4.90;;;3.28;;
71162;SDS011;58858;50.948;6.566;2023-02-13T15:23:41;5.60;;;3.90;;
71162;SDS011;58858;50.948;6.566;2023-02-13T15:33:43;6.38;;;2.47;;
71162;SDS011;58858;50.948;6.566;2023-02-13T15:43:49;4.45;;;2.85;;
71162;SDS011;58858;50.948;6.566;2023-02-13T15:53:54;5.03;;;2.22;;
71162;SDS011;58858;50.948;6.566;2023-02-13T16:04:01;7.95;;;2.35;;
71162;SDS011;58858;50.948;6.566;2023-02-13T16:24:14;8.95;;;2.33;;
71162;SDS011;58858;50.948;6.566;2023-02-13T16:34:23;5.32;;;3.03;;
71162;SDS011;58858;50.948;6.566;2023-02-13T16:44:30;8.25;;;3.72;;
71162;SDS011;58858;50.948;6.566;2023-02-13T16:54:36;4.28;;;2.65;;
71162;SDS011;58858;50.948;6.566;2023-02-13T17:04:41;4.32;;;2.70;;
71162;SDS011;58858;50.948;6.566;2023-02-13T17:14:43;7.15;;;3.90;;
71162;SDS011;58858;50.948;6.566;2023-02-13T17:24:44;18.17;;;11.13;;
71162;SDS011;58858;50.948;6.566;2023-02-13T17:34:45;7.40;;;5.07;;
71162;SDS011;58858;50.948;6.566;2023-02-13T17:44:46;8.65;;;5.00;;
71162;SDS011;58858;50.948;6.566;2023-02-13T17:54:47;8.45;;;5.60;;
71162;SDS011;58858;50.948;6.566;2023-02-13T18:04:49;10.20;;;6.38;;
71162;SDS011;58858;50.948;6.566;2023-02-13T18:14:50;7.57;;;5.18;;
71162;SDS011;58858;50.948;6.566;2023-02-13T18:24:52;14.38;;;7.82;;
71162;SDS011;58858;50.948;6.566;2023-02-13T18:34:53;12.50;;;7.43;;
71162;SDS011;58858;50.948;6.566;2023-02-13T18:44:54;10.38;;;7.07;;
71162;SDS011;58858;50.948;6.566;2023-02-13T18:54:55;11.10;;;7.22;;
71162;SDS011;58858;50.948;6.566;2023-02-13T19:04:56;10.10;;;6.72;;
71162;SDS011;58858;50.948;6.566;2023-02-13T19:14:57;10.15;;;6.97;;
71162;SDS011;58858;50.948;6.566;2023-02-13T19:24:58;13.00;;;8.40;;
71162;SDS011;58858;50.948;6.566;2023-02-13T19:35:01;10.60;;;6.88;;
71162;SDS011;58858;50.948;6.566;2023-02-13T19:45:02;11.00;;;6.78;;
71162;SDS011;58858;50.948;6.566;2023-02-13T19:55:03;28.45;;;17.48;;
71162;SDS011;58858;50.948;6.566;2023-02-13T20:05:04;17.73;;;8.82;;
71162;SDS011;58858;50.948;6.566;2023-02-13T20:15:09;10.77;;;7.20;;
71162;SDS011;58858;50.948;6.566;2023-02-13T20:25:10;9.77;;;6.72;;
71162;SDS011;58858;50.948;6.566;2023-02-13T20:35:11;11.77;;;7.28;;
71162;SDS011;58858;50.948;6.566;2023-02-13T20:45:12;19.33;;;12.27;;
71162;SDS011;58858;50.948;6.566;2023-02-13T20:55:13;34.25;;;18.63;;
71162;SDS011;58858;50.948;6.566;2023-02-13T21:05:14;14.05;;;9.10;;
71162;SDS011;58858;50.948;6.566;2023-02-13T21:15:15;12.18;;;8.85;;
71162;SDS011;58858;50.948;6.566;2023-02-13T21:25:18;10.68;;;8.20;;
71162;SDS011;58858;50.948;6.566;2023-02-13T21:35:19;13.45;;;8.63;;
71162;SDS011;58858;50.948;6.566;2023-02-13T21:45:20;11.68;;;8.02;;
71162;SDS011;58858;50.948;6.566;2023-02-13T21:55:21;14.80;;;8.95;;
71162;SDS011;58858;50.948;6.566;2023-02-13T22:05:22;14.23;;;9.05;;
71162;SDS011;58858;50.948;6.566;2023-02-13T22:15:25;11.55;;;7.68;;
71162;SDS011;58858;50.948;6.566;2023-02-13T22:25:26;17.70;;;11.15;;
71162;SDS011;58858;50.948;6.566;2023-02-13T22:35:27;12.63;;;7.78;;
71162;SDS011;58858;50.948;6.566;2023-02-13T22:45:28;10.20;;;6.50;;
71162;SDS011;58858;50.948;6.566;2023-02-13T22:55:29;10.25;;;6.47;;
71162;SDS011;58858;50.948;6.566;2023-02-13T23:05:30;9.23;;;6.03;;
71162;SDS011;58858;50.948;6.566;2023-02-13T23:15:32;13.07;;;7.10;;
71162;SDS011;58858;50.948;6.566;2023-02-13T23:25:34;11.25;;;6.70;;
71162;SDS011;58858;50.948;6.566;2023-02-13T23:35:36;11.30;;;6.85;;
71162;SDS011;58858;50.948;6.566;2023-02-13T23:45:37;12.10;;;7.60;;
71162;SDS011;58858;50.948;6.566;2023-02-13T23:55:38;9.38;;;5.60;;
